Time,TemperatureF,DewpointF,PressureIn,WindDirection,WindDirectionDegrees,WindSpeedMPH,WindSpeedGustMPH,Humidity,HourlyPrecipIn,Conditions,Clouds,dailyrainin,SoftwareType,DateUTC
2013-05-31 00:02:00,47.1,30.9,29.92,NNW,331,0.0,1.0,53,0.00,,---,0.00,VWS V14.01,2013-05-31 06:02:00,
2013-05-31 00:07:00,47.1,30.9,29.92,WSW,252,1.0,6.0,53,0.00,,---,0.00,VWS V14.01,2013-05-31 06:07:00,
2013-05-31 00:12:00,47.1,31.3,29.92,NNE,28,1.0,9.0,54,0.00,,---,0.00,VWS V14.01,2013-05-31 06:12:00,
2013-05-31 00:17:00,47.1,31.3,29.90,NE,49,5.0,6.0,54,0.00,,---,0.00,VWS V14.01,2013-05-31 06:17:00,
2013-05-31 00:22:00,47.0,31.7,29.90,ENE,75,0.0,2.0,55,0.00,,---,0.00,VWS V14.01,2013-05-31 06:22:00,
2013-05-31 00:27:00,47.0,31.7,29.90,ESE,114,0.0,15.0,55,0.00,,---,0.00,VWS V14.01,2013-05-31 06:27:00,
2013-05-31 00:32:00,46.8,31.0,29.90,SW,221,0.0,5.0,54,0.00,,---,0.00,VWS V14.01,2013-05-31 06:32:00,
2013-05-31 00:37:00,46.8,31.0,29.90,NE,46,0.0,6.0,54,0.00,,---,0.00,VWS V14.01,2013-05-31 06:37:00,
2013-05-31 00:42:00,46.8,31.5,29.90,NNE,12,0.0,5.0,55,0.00,,---,0.00,VWS V14.01,2013-05-31 06:42:00,
2013-05-31 00:48:00,46.7,31.4,29.90,West,279,1.0,7.0,55,0.00,,---,0.00,VWS V14.01,2013-05-31 06:48:00,
2013-05-31 00:53:00,46.5,30.8,29.90,South,175,0.0,3.0,54,0.00,,---,0.00,VWS V14.01,2013-05-31 06:53:00,
2013-05-31 00:58:00,46.5,31.2,29.90,NW,325,3.0,10.0,55,0.00,,---,0.00,VWS V14.01,2013-05-31 06:58:00,
2013-05-31 01:03:00,46.5,31.2,29.90,ENE,64,0.0,2.0,55,0.00,,---,0.00,VWS V14.01,2013-05-31 07:03:00,
2013-05-31 01:08:00,46.5,31.2,29.90,SE,144,0.0,3.0,55,0.00,,---,0.00,VWS V14.01,2013-05-31 07:08:00,
2013-05-31 01:13:00,46.4,31.1,29.90,NE,35,4.0,10.0,55,0.00,,---,0.00,VWS V14.01,2013-05-31 07:13:00,
2013-05-31 01:18:00,46.4,30.7,29.93,ENE,60,4.0,5.0,54,0.00,,---,0.00,VWS V14.01,2013-05-31 07:18:00,
2013-05-31 01:23:00,46.4,31.1,29.93,WSW,247,0.0,11.0,55,0.00,,---,0.00,VWS V14.01,2013-05-31 07:23:00,
2013-05-31 01:28:00,46.2,30.9,29.93,NNW,331,1.0,5.0,55,0.00,,---,0.00,VWS V14.01,2013-05-31 07:28:00,
2013-05-31 01:33:00,46.2,30.9,29.94,ENE,69,0.0,0.0,55,0.00,,---,0.00,VWS V14.01,2013-05-31 07:33:00,
2013-05-31 01:38:00,46.2,30.9,29.94,North,9,0.0,3.0,55,0.00,,---,0.00,VWS V14.01,2013-05-31 07:38:00,
2013-05-31 01:43:00,46.2,30.5,29.94,NNE,20,1.0,3.0,54,0.00,,---,0.00,VWS V14.01,2013-05-31 07:43:00,
2013-05-31 01:48:00,46.2,30.9,29.93,NNE,28,0.0,1.0,55,0.00,,---,0.00,VWS V14.01,2013-05-31 07:48:00,
2013-05-31 01:53:00,46.1,30.9,29.93,North,355,0.0,2.0,55,0.00,,---,0.00,VWS V14.01,2013-05-31 07:53:00,
2013-05-31 01:58:00,46.1,30.4,29.93,NE,39,3.0,6.0,54,0.00,,---,0.00,VWS V14.01,2013-05-31 07:58:00,
2013-05-31 02:03:00,46.1,30.4,29.94,NW,322,1.0,6.0,54,0.00,,---,0.00,VWS V14.01,2013-05-31 08:03:00,
2013-05-31 02:08:00,46.1,30.9,29.94,NW,305,1.0,7.0,55,0.00,,---,0.00,VWS V14.01,2013-05-31 08:08:00,
2013-05-31 02:13:00,46.1,30.9,29.94,NNW,336,6.0,7.0,55,0.00,,---,0.00,VWS V14.01,2013-05-31 08:13:00,
2013-05-31 02:18:00,46.1,30.4,29.93,NNE,30,1.0,9.0,54,0.00,,---,0.00,VWS V14.01,2013-05-31 08:18:00,
2013-05-31 02:23:00,46.1,30.9,29.93,NNE,20,0.0,1.0,55,0.00,,---,0.00,VWS V14.01,2013-05-31 08:23:00,
2013-05-31 02:28:00,46.1,30.4,29.93,NNE,18,2.0,5.0,54,0.00,,---,0.00,VWS V14.01,2013-05-31 08:28:00,
2013-05-31 02:33:00,46.1,30.4,29.94,NNE,17,5.0,10.0,54,0.00,,---,0.00,VWS V14.01,2013-05-31 08:33:00,
2013-05-31 02:38:00,46.0,30.8,29.94,NE,38,0.0,5.0,55,0.00,,---,0.00,VWS V14.01,2013-05-31 08:38:00,
2013-05-31 02:43:00,46.0,30.8,29.94,WNW,302,2.0,5.0,55,0.00,,---,0.00,VWS V14.01,2013-05-31 08:43:00,
2013-05-31 02:48:00,46.0,30.8,29.94,North,360,1.0,6.0,55,0.00,,---,0.00,VWS V14.01,2013-05-31 08:48:00,
2013-05-31 02:54:00,45.8,30.6,29.94,West,269,0.0,4.0,55,0.00,,---,0.00,VWS V14.01,2013-05-31 08:54:00,
2013-05-31 02:59:00,45.8,30.6,29.94,NNE,30,1.0,10.0,55,0.00,,---,0.00,VWS V14.01,2013-05-31 08:59:00,
2013-05-31 03:04:00,45.8,30.6,29.94,NNW,333,1.0,6.0,55,0.00,,---,0.00,VWS V14.01,2013-05-31 09:04:00,
2013-05-31 03:09:00,45.7,30.9,29.94,North,355,0.0,7.0,56,0.00,,---,0.00,VWS V14.01,2013-05-31 09:09:00,
2013-05-31 03:15:00,45.7,30.5,29.94,ENE,69,3.0,10.0,55,0.00,,---,0.00,VWS V14.01,2013-05-31 09:15:00,
2013-05-31 03:20:00,45.7,30.9,29.94,NE,37,0.0,3.0,56,0.00,,---,0.00,VWS V14.01,2013-05-31 09:20:00,
2013-05-31 03:25:00,45.5,30.7,29.94,NNE,15,0.0,3.0,56,0.00,,---,0.00,VWS V14.01,2013-05-31 09:25:00,
2013-05-31 03:30:00,45.5,30.7,29.94,East,87,0.0,4.0,56,0.00,,---,0.00,VWS V14.01,2013-05-31 09:30:00,
2013-05-31 03:35:00,45.5,30.7,29.95,North,5,1.0,12.0,56,0.00,,---,0.00,VWS V14.01,2013-05-31 09:35:00,
2013-05-31 03:40:00,45.4,31.1,29.95,East,88,0.0,9.0,57,0.00,,---,0.00,VWS V14.01,2013-05-31 09:40:00,
2013-05-31 03:45:00,45.4,30.6,29.95,SSE,166,0.0,8.0,56,0.00,,---,0.00,VWS V14.01,2013-05-31 09:45:00,
2013-05-31 03:50:00,45.4,31.5,29.96,WNW,297,0.0,2.0,58,0.00,,---,0.00,VWS V14.01,2013-05-31 09:50:00,
2013-05-31 03:55:00,45.4,31.1,29.96,NNW,337,0.0,4.0,57,0.00,,---,0.00,VWS V14.01,2013-05-31 09:55:00,
2013-05-31 04:00:00,45.2,31.3,29.96,SE,126,0.0,4.0,58,0.00,,---,0.00,VWS V14.01,2013-05-31 10:00:00,
2013-05-31 04:05:00,45.2,30.9,29.96,NNW,340,3.0,4.0,57,0.00,,---,0.00,VWS V14.01,2013-05-31 10:05:00,
2013-05-31 04:10:00,45.2,30.9,29.96,NE,48,0.0,4.0,57,0.00,,---,0.00,VWS V14.01,2013-05-31 10:10:00,
2013-05-31 04:15:00,45.1,31.2,29.96,East,88,0.0,3.0,58,0.00,,---,0.00,VWS V14.01,2013-05-31 10:15:00,
2013-05-31 04:20:00,45.1,31.2,29.96,WSW,256,0.0,5.0,58,0.00,,---,0.00,VWS V14.01,2013-05-31 10:20:00,
2013-05-31 04:25:00,45.1,31.6,29.96,SW,226,0.0,4.0,59,0.00,,---,0.00,VWS V14.01,2013-05-31 10:25:00,
2013-05-31 04:30:00,44.9,31.0,29.96,NNW,344,0.0,9.0,58,0.00,,---,0.00,VWS V14.01,2013-05-31 10:30:00,
2013-05-31 04:35:00,44.9,31.5,29.96,SE,134,2.0,6.0,59,0.00,,---,0.00,VWS V14.01,2013-05-31 10:35:00,
2013-05-31 04:40:00,44.8,32.2,29.96,WSW,248,0.0,4.0,61,0.00,,---,0.00,VWS V14.01,2013-05-31 10:40:00,
2013-05-31 04:45:00,44.6,31.6,29.96,NE,44,1.0,6.0,60,0.00,,---,0.00,VWS V14.01,2013-05-31 10:45:00,
2013-05-31 04:50:00,44.5,33.1,29.96,North,10,0.0,0.0,64,0.00,,---,0.00,VWS V14.01,2013-05-31 10:50:00,
2013-05-31 04:55:00,44.3,32.1,29.96,SW,231,0.0,5.0,62,0.00,,---,0.00,VWS V14.01,2013-05-31 10:55:00,
2013-05-31 05:00:00,44.2,32.8,29.97,ENE,73,1.0,6.0,64,0.00,,---,0.00,VWS V14.01,2013-05-31 11:00:00,
2013-05-31 05:05:00,44.2,32.4,29.97,NNE,32,0.0,5.0,63,0.00,,---,0.00,VWS V14.01,2013-05-31 11:05:00,
2013-05-31 05:10:00,44.1,31.9,29.97,ENE,57,0.0,6.0,62,0.00,,---,0.00,VWS V14.01,2013-05-31 11:10:00,
2013-05-31 05:15:00,44.1,31.5,29.97,East,79,2.0,3.0,61,0.00,,---,0.00,VWS V14.01,2013-05-31 11:15:00,
2013-05-31 05:21:00,44.2,31.6,29.97,SE,130,0.0,8.0,61,0.00,,---,0.00,VWS V14.01,2013-05-31 11:21:00,
2013-05-31 05:26:00,44.2,30.8,29.97,North,355,1.0,4.0,59,0.00,,---,0.00,VWS V14.01,2013-05-31 11:26:00,
2013-05-31 05:31:00,44.3,31.3,29.98,East,84,0.0,1.0,60,0.00,,---,0.00,VWS V14.01,2013-05-31 11:31:00,
2013-05-31 05:36:00,44.3,30.9,29.98,East,84,0.0,1.0,59,0.00,,---,0.00,VWS V14.01,2013-05-31 11:36:00,
2013-05-31 05:41:00,44.3,31.3,29.98,East,84,0.0,0.0,60,0.00,,---,0.00,VWS V14.01,2013-05-31 11:41:00,
2013-05-31 05:46:00,44.3,30.9,29.98,East,85,0.0,2.0,59,0.00,,---,0.00,VWS V14.01,2013-05-31 11:46:00,
2013-05-31 05:51:00,44.3,31.3,29.98,East,92,0.0,2.0,60,0.00,,---,0.00,VWS V14.01,2013-05-31 11:51:00,
2013-05-31 05:56:00,44.3,30.9,29.98,NE,46,0.0,2.0,59,0.00,,---,0.00,VWS V14.01,2013-05-31 11:56:00,
2013-05-31 06:01:00,44.3,30.9,29.99,NNW,341,0.0,0.0,59,0.00,,---,0.00,VWS V14.01,2013-05-31 12:01:00,
2013-05-31 06:06:00,44.3,32.1,29.99,NNW,341,0.0,0.0,62,0.00,,---,0.00,VWS V14.01,2013-05-31 12:06:00,
2013-05-31 06:11:00,44.3,30.9,29.99,NNW,336,0.0,3.0,59,0.00,,---,0.00,VWS V14.01,2013-05-31 12:11:00,
2013-05-31 06:16:00,44.3,30.9,30.00,NNW,344,0.0,0.0,59,0.00,,---,0.00,VWS V14.01,2013-05-31 12:16:00,
2013-05-31 06:21:00,44.3,31.7,30.00,NNE,17,0.0,5.0,61,0.00,,---,0.00,VWS V14.01,2013-05-31 12:21:00,
2013-05-31 06:26:00,44.5,31.1,30.00,ENE,57,0.0,0.0,59,0.00,,---,0.00,VWS V14.01,2013-05-31 12:26:00,
2013-05-31 06:31:00,44.5,31.5,30.00,NE,56,0.0,1.0,60,0.00,,---,0.00,VWS V14.01,2013-05-31 12:31:00,
2013-05-31 06:36:00,44.5,31.1,30.00,ENE,72,0.0,0.0,59,0.00,,---,0.00,VWS V14.01,2013-05-31 12:36:00,
2013-05-31 06:41:00,44.5,31.5,30.00,ENE,59,0.0,0.0,60,0.00,,---,0.00,VWS V14.01,2013-05-31 12:41:00,
2013-05-31 06:46:00,44.5,32.3,30.01,ENE,59,0.0,0.0,62,0.00,,---,0.00,VWS V14.01,2013-05-31 12:46:00,
2013-05-31 06:51:00,44.5,31.9,30.01,ENE,59,0.0,0.0,61,0.00,,---,0.00,VWS V14.01,2013-05-31 12:51:00,
2013-05-31 06:56:00,44.5,31.1,30.01,ENE,65,0.0,0.0,59,0.00,,---,0.00,VWS V14.01,2013-05-31 12:56:00,
2013-05-31 07:01:00,44.5,31.5,30.01,NW,325,0.0,0.0,60,0.00,,---,0.00,VWS V14.01,2013-05-31 13:01:00,
2013-05-31 07:06:00,44.6,31.2,30.01,WNW,301,0.0,0.0,59,0.00,,---,0.00,VWS V14.01,2013-05-31 13:06:00,
2013-05-31 07:11:00,44.6,32.0,30.01,WNW,292,0.0,1.0,61,0.00,,---,0.00,VWS V14.01,2013-05-31 13:11:00,
2013-05-31 07:16:00,44.6,30.8,30.02,NW,315,0.0,0.0,58,0.00,,---,0.00,VWS V14.01,2013-05-31 13:16:00,
2013-05-31 07:22:00,44.8,31.4,30.02,North,355,0.0,1.0,59,0.00,,---,0.00,VWS V14.01,2013-05-31 13:22:00,
2013-05-31 07:27:00,44.8,31.4,30.02,North,355,0.0,0.0,59,0.00,,---,0.00,VWS V14.01,2013-05-31 13:27:00,
2013-05-31 07:32:00,44.8,31.4,30.03,North,5,0.0,0.0,59,0.00,,---,0.00,VWS V14.01,2013-05-31 13:32:00,
2013-05-31 07:37:00,44.9,31.9,30.03,North,5,3.0,3.0,60,0.00,,---,0.00,VWS V14.01,2013-05-31 13:37:00,
2013-05-31 07:42:00,44.9,31.5,30.03,North,5,0.0,0.0,59,0.00,,---,0.00,VWS V14.01,2013-05-31 13:42:00,
2013-05-31 07:47:00,44.9,31.5,30.03,WSW,240,0.0,1.0,59,0.00,,---,0.00,VWS V14.01,2013-05-31 13:47:00,
2013-05-31 07:52:00,44.9,31.5,30.03,WNW,298,0.0,0.0,59,0.00,,---,0.00,VWS V14.01,2013-05-31 13:52:00,
2013-05-31 07:57:00,44.9,31.5,30.03,NW,323,0.0,0.0,59,0.00,,---,0.00,VWS V14.01,2013-05-31 13:57:00,
2013-05-31 08:02:00,44.9,31.5,30.03,SW,221,0.0,1.0,59,0.00,,---,0.00,VWS V14.01,2013-05-31 14:02:00,
2013-05-31 08:07:00,44.9,32.3,30.03,ENE,78,0.0,0.0,61,0.00,,---,0.00,VWS V14.01,2013-05-31 14:07:00,
2013-05-31 08:12:00,44.9,32.3,30.03,North,5,3.0,3.0,61,0.00,,---,0.00,VWS V14.01,2013-05-31 14:12:00,
2013-05-31 08:17:00,44.9,31.9,30.05,NW,309,0.0,0.0,60,0.00,,---,0.00,VWS V14.01,2013-05-31 14:17:00,
2013-05-31 08:22:00,45.1,32.1,30.05,WNW,291,2.0,3.0,60,0.00,,---,0.00,VWS V14.01,2013-05-31 14:22:00,
2013-05-31 08:27:00,45.1,31.6,30.05,WNW,302,0.0,2.0,59,0.00,,---,0.00,VWS V14.01,2013-05-31 14:27:00,
2013-05-31 08:32:00,45.1,31.2,30.05,West,265,0.0,0.0,58,0.00,,---,0.00,VWS V14.01,2013-05-31 14:32:00,
2013-05-31 08:37:00,45.2,32.6,30.05,NNW,340,0.0,0.0,61,0.00,,---,0.00,VWS V14.01,2013-05-31 14:37:00,
2013-05-31 08:42:00,45.2,31.7,30.05,NW,324,0.0,3.0,59,0.00,,---,0.00,VWS V14.01,2013-05-31 14:42:00,
2013-05-31 08:47:00,45.2,31.7,30.06,NNW,331,0.0,3.0,59,0.00,,---,0.00,VWS V14.01,2013-05-31 14:47:00,
2013-05-31 08:52:00,45.2,31.7,30.06,WNW,283,0.0,6.0,59,0.00,,---,0.00,VWS V14.01,2013-05-31 14:52:00,
2013-05-31 08:57:00,45.2,31.7,30.06,WNW,288,1.0,5.0,59,0.00,,---,0.00,VWS V14.01,2013-05-31 14:57:00,
2013-05-31 09:03:00,45.4,32.3,30.06,West,273,4.0,4.0,60,0.00,,---,0.00,VWS V14.01,2013-05-31 15:03:00,
2013-05-31 09:08:00,45.4,31.9,30.06,North,355,0.0,3.0,59,0.00,,---,0.00,VWS V14.01,2013-05-31 15:08:00,
2013-05-31 09:13:00,45.5,32.0,30.06,ESE,103,0.0,1.0,59,0.00,,---,0.00,VWS V14.01,2013-05-31 15:13:00,
2013-05-31 09:18:00,45.5,32.4,30.06,NNE,13,0.0,1.0,60,0.00,,---,0.00,VWS V14.01,2013-05-31 15:18:00,
2013-05-31 09:23:00,45.5,31.6,30.06,NW,325,0.0,1.0,58,0.00,,---,0.00,VWS V14.01,2013-05-31 15:23:00,
2013-05-31 09:28:00,45.7,32.2,30.06,ENE,75,0.0,1.0,59,0.00,,---,0.00,VWS V14.01,2013-05-31 15:28:00,
2013-05-31 09:33:00,45.7,33.4,30.06,South,170,0.0,2.0,62,0.00,,---,0.00,VWS V14.01,2013-05-31 15:33:00,
2013-05-31 09:38:00,45.7,32.6,30.06,West,269,0.0,2.0,60,0.00,,---,0.00,VWS V14.01,2013-05-31 15:38:00,
2013-05-31 09:43:00,45.7,32.2,30.06,ESE,107,0.0,2.0,59,0.00,,---,0.00,VWS V14.01,2013-05-31 15:43:00,
2013-05-31 09:48:00,45.8,32.7,30.07,ESE,107,0.0,1.0,60,0.00,,---,0.00,VWS V14.01,2013-05-31 15:48:00,
2013-05-31 09:53:00,46.0,33.3,30.07,ESE,116,0.0,1.0,61,0.00,,---,0.00,VWS V14.01,2013-05-31 15:53:00,
2013-05-31 09:58:00,46.0,32.1,30.07,NW,322,0.0,5.0,58,0.00,,---,0.00,VWS V14.01,2013-05-31 15:58:00,
2013-05-31 10:03:00,46.1,31.7,30.07,West,278,0.0,2.0,57,0.00,,---,0.00,VWS V14.01,2013-05-31 16:03:00,
2013-05-31 10:08:00,46.2,32.2,30.07,NE,47,0.0,3.0,58,0.00,,---,0.00,VWS V14.01,2013-05-31 16:08:00,
2013-05-31 10:13:00,46.4,32.9,30.07,NW,315,0.0,5.0,59,0.00,,---,0.00,VWS V14.01,2013-05-31 16:13:00,
2013-05-31 10:18:00,46.4,32.9,30.07,NW,321,0.0,0.0,59,0.00,,---,0.00,VWS V14.01,2013-05-31 16:18:00,
2013-05-31 10:23:00,46.5,33.8,30.07,NW,321,0.0,1.0,61,0.00,,---,0.00,VWS V14.01,2013-05-31 16:23:00,
2013-05-31 10:29:00,46.5,35.0,30.07,NNW,329,0.0,0.0,64,0.00,,---,0.00,VWS V14.01,2013-05-31 16:29:00,
2013-05-31 10:34:00,46.5,35.0,30.08,North,5,2.0,3.0,64,0.00,,---,0.00,VWS V14.01,2013-05-31 16:34:00,
2013-05-31 10:39:00,46.4,34.5,30.08,SW,229,0.0,0.0,63,0.00,,---,0.00,VWS V14.01,2013-05-31 16:39:00,
2013-05-31 10:44:00,46.2,35.1,30.08,ESE,105,0.0,3.0,65,0.00,,---,0.00,VWS V14.01,2013-05-31 16:44:00,
2013-05-31 10:49:00,46.1,35.8,30.09,North,360,4.0,4.0,67,0.00,,---,0.00,VWS V14.01,2013-05-31 16:49:00,
2013-05-31 10:54:00,46.0,34.9,30.09,NNE,24,0.0,0.0,65,0.00,,---,0.00,VWS V14.01,2013-05-31 16:54:00,
2013-05-31 10:59:00,45.8,35.1,30.09,NNW,348,0.0,1.0,66,0.00,,---,0.00,VWS V14.01,2013-05-31 16:59:00,
2013-05-31 11:04:00,45.8,36.6,30.09,NW,323,2.0,2.0,70,0.00,,---,0.00,VWS V14.01,2013-05-31 17:04:00,
2013-05-31 11:09:00,46.0,35.7,30.09,East,98,0.0,3.0,67,0.00,,---,0.00,VWS V14.01,2013-05-31 17:09:00,
2013-05-31 11:14:00,46.1,35.0,30.09,NNE,19,0.0,2.0,65,0.00,,---,0.00,VWS V14.01,2013-05-31 17:14:00,
2013-05-31 11:19:00,46.1,34.6,30.10,NNW,343,0.0,1.0,64,0.00,,---,0.00,VWS V14.01,2013-05-31 17:19:00,
2013-05-31 11:24:00,46.2,34.7,30.10,SSE,157,3.0,5.0,64,0.00,,---,0.00,VWS V14.01,2013-05-31 17:24:00,
2013-05-31 11:29:00,46.4,34.5,30.10,NNW,333,0.0,3.0,63,0.00,,---,0.00,VWS V14.01,2013-05-31 17:29:00,
2013-05-31 11:34:00,46.4,33.7,30.11,South,173,0.0,1.0,61,0.00,,---,0.00,VWS V14.01,2013-05-31 17:34:00,
2013-05-31 11:39:00,46.5,34.6,30.11,WNW,298,0.0,2.0,63,0.00,,---,0.00,VWS V14.01,2013-05-31 17:39:00,
2013-05-31 11:44:00,46.8,34.5,30.11,North,5,0.0,3.0,62,0.00,,---,0.00,VWS V14.01,2013-05-31 17:44:00,
2013-05-31 11:50:00,47.0,34.7,30.10,NE,44,0.0,3.0,62,0.00,,---,0.00,VWS V14.01,2013-05-31 17:50:00,
2013-05-31 11:55:00,47.1,34.4,30.10,SSW,213,4.0,4.0,61,0.00,,---,0.00,VWS V14.01,2013-05-31 17:55:00,
2013-05-31 12:00:00,47.3,34.1,30.10,North,5,2.0,11.0,60,0.00,,---,0.00,VWS V14.01,2013-05-31 18:00:00,
2013-05-31 12:05:00,47.3,34.1,30.11,WNW,287,0.0,5.0,60,0.00,,---,0.00,VWS V14.01,2013-05-31 18:05:00,
2013-05-31 12:10:00,47.4,34.2,30.11,East,88,2.0,4.0,60,0.00,,---,0.00,VWS V14.01,2013-05-31 18:10:00,
2013-05-31 12:15:00,47.6,34.4,30.11,NE,46,2.0,5.0,60,0.00,,---,0.00,VWS V14.01,2013-05-31 18:15:00,
2013-05-31 12:20:00,47.7,34.1,30.11,NNE,26,1.0,3.0,59,0.00,,---,0.00,VWS V14.01,2013-05-31 18:20:00,
2013-05-31 12:25:00,47.7,34.1,30.11,WSW,240,3.0,6.0,59,0.00,,---,0.00,VWS V14.01,2013-05-31 18:25:00,
2013-05-31 12:30:00,47.7,34.1,30.11,ENE,69,3.0,5.0,59,0.00,,---,0.00,VWS V14.01,2013-05-31 18:30:00,
2013-05-31 12:35:00,47.9,34.3,30.11,NNE,17,1.0,4.0,59,0.00,,---,0.00,VWS V14.01,2013-05-31 18:35:00,
2013-05-31 12:40:00,48.0,33.9,30.11,West,260,0.0,3.0,58,0.00,,---,0.00,VWS V14.01,2013-05-31 18:40:00,
2013-05-31 12:45:00,48.2,33.7,30.11,East,88,1.0,6.0,57,0.00,,---,0.00,VWS V14.01,2013-05-31 18:45:00,
2013-05-31 12:50:00,48.3,34.2,30.11,NNW,341,0.0,5.0,58,0.00,,---,0.00,VWS V14.01,2013-05-31 18:50:00,
2013-05-31 12:55:00,48.5,33.5,30.11,West,259,0.0,6.0,56,0.00,,---,0.00,VWS V14.01,2013-05-31 18:55:00,
2013-05-31 13:00:00,48.6,34.5,30.10,NNE,15,1.0,3.0,58,0.00,,---,0.00,VWS V14.01,2013-05-31 19:00:00,
2013-05-31 13:05:00,48.8,34.7,30.10,NNE,30,0.0,2.0,58,0.00,,---,0.00,VWS V14.01,2013-05-31 19:05:00,
2013-05-31 13:11:00,48.9,33.9,30.10,SSW,196,0.0,6.0,56,0.00,,---,0.00,VWS V14.01,2013-05-31 19:11:00,
2013-05-31 13:16:00,48.9,33.5,30.12,North,5,0.0,7.0,55,0.00,,---,0.00,VWS V14.01,2013-05-31 19:16:00,
2013-05-31 13:21:00,48.9,33.9,30.12,North,5,4.0,6.0,56,0.00,,---,0.00,VWS V14.01,2013-05-31 19:21:00,
2013-05-31 13:26:00,48.9,33.9,30.12,NE,47,0.0,6.0,56,0.00,,---,0.00,VWS V14.01,2013-05-31 19:26:00,
2013-05-31 13:31:00,48.9,34.3,30.12,WNW,288,0.0,3.0,57,0.00,,---,0.00,VWS V14.01,2013-05-31 19:31:00,
2013-05-31 13:36:00,48.9,33.9,30.12,NW,323,0.0,4.0,56,0.00,,---,0.00,VWS V14.01,2013-05-31 19:36:00,
2013-05-31 13:41:00,49.1,34.1,30.12,WNW,297,0.0,4.0,56,0.00,,---,0.00,VWS V14.01,2013-05-31 19:41:00,
2013-05-31 13:46:00,49.1,33.7,30.12,NNW,328,1.0,3.0,55,0.00,,---,0.00,VWS V14.01,2013-05-31 19:46:00,
2013-05-31 13:51:00,49.2,34.2,30.12,NE,35,5.0,6.0,56,0.00,,---,0.00,VWS V14.01,2013-05-31 19:51:00,
2013-05-31 13:56:00,49.2,33.7,30.12,South,184,0.0,0.0,55,0.00,,---,0.00,VWS V14.01,2013-05-31 19:56:00,
2013-05-31 14:01:00,49.4,33.9,30.12,North,5,5.0,5.0,55,0.00,,---,0.00,VWS V14.01,2013-05-31 20:01:00,
2013-05-31 14:06:00,49.5,34.0,30.12,NE,42,0.0,0.0,55,0.00,,---,0.00,VWS V14.01,2013-05-31 20:06:00,
2013-05-31 14:11:00,49.6,33.7,30.12,NNE,33,1.0,1.0,54,0.00,,---,0.00,VWS V14.01,2013-05-31 20:11:00,
2013-05-31 14:16:00,49.9,34.8,30.11,NE,42,3.0,3.0,56,0.00,,---,0.00,VWS V14.01,2013-05-31 20:16:00,
2013-05-31 14:21:00,49.9,34.4,30.11,South,182,1.0,4.0,55,0.00,,---,0.00,VWS V14.01,2013-05-31 20:21:00,
2013-05-31 14:26:00,50.1,34.6,30.11,WSW,241,0.0,1.0,55,0.00,,---,0.00,VWS V14.01,2013-05-31 20:26:00,
2013-05-31 14:32:00,50.1,34.6,30.12,North,5,0.0,0.0,55,0.00,,---,0.00,VWS V14.01,2013-05-31 20:32:00,
2013-05-31 14:37:00,50.1,33.2,30.12,North,5,5.0,10.0,52,0.00,,---,0.00,VWS V14.01,2013-05-31 20:37:00,
2013-05-31 14:42:00,50.2,33.3,30.12,North,355,0.0,3.0,52,0.00,,---,0.00,VWS V14.01,2013-05-31 20:42:00,
2013-05-31 14:47:00,50.1,33.2,30.12,SSE,164,0.0,0.0,52,0.00,,---,0.00,VWS V14.01,2013-05-31 20:47:00,
2013-05-31 14:52:00,50.1,33.7,30.12,NNW,334,0.0,1.0,53,0.00,,---,0.00,VWS V14.01,2013-05-31 20:52:00,
2013-05-31 14:57:00,50.1,33.7,30.12,NW,321,0.0,5.0,53,0.00,,---,0.00,VWS V14.01,2013-05-31 20:57:00,
2013-05-31 15:02:00,50.1,34.1,30.13,North,11,0.0,1.0,54,0.00,,---,0.00,VWS V14.01,2013-05-31 21:02:00,
2013-05-31 15:07:00,50.1,33.7,30.13,NNE,13,1.0,2.0,53,0.00,,---,0.00,VWS V14.01,2013-05-31 21:07:00,
2013-05-31 15:12:00,50.1,34.1,30.13,WNW,288,3.0,4.0,54,0.00,,---,0.00,VWS V14.01,2013-05-31 21:12:00,
2013-05-31 15:17:00,50.2,34.2,30.14,NE,44,0.0,1.0,54,0.00,,---,0.00,VWS V14.01,2013-05-31 21:17:00,
2013-05-31 15:22:00,50.2,33.7,30.14,West,265,2.0,5.0,53,0.00,,---,0.00,VWS V14.01,2013-05-31 21:22:00,
2013-05-31 15:27:00,50.2,33.7,30.14,North,9,0.0,5.0,53,0.00,,---,0.00,VWS V14.01,2013-05-31 21:27:00,
2013-05-31 15:32:00,50.2,34.7,30.14,West,263,1.0,1.0,55,0.00,,---,0.00,VWS V14.01,2013-05-31 21:32:00,
2013-05-31 15:37:00,50.2,34.7,30.14,SW,215,0.0,0.0,55,0.00,,---,0.00,VWS V14.01,2013-05-31 21:37:00,
2013-05-31 15:43:00,50.1,35.9,30.14,NE,55,0.0,1.0,58,0.00,,---,0.00,VWS V14.01,2013-05-31 21:43:00,
2013-05-31 15:48:00,49.9,36.6,30.15,WNW,299,0.0,0.0,60,0.00,,---,0.00,VWS V14.01,2013-05-31 21:48:00,
2013-05-31 15:53:00,49.8,38.5,30.15,WSW,250,0.0,1.0,65,0.00,,---,0.00,VWS V14.01,2013-05-31 21:53:00,
2013-05-31 15:58:00,49.5,39.4,30.15,WSW,238,0.0,3.0,68,0.00,,---,0.00,VWS V14.01,2013-05-31 21:58:00,
2013-05-31 16:03:00,49.2,39.8,30.16,WSW,238,0.0,0.0,70,0.00,,---,0.00,VWS V14.01,2013-05-31 22:03:00,
2013-05-31 16:08:00,49.1,40.1,30.16,WSW,239,0.0,1.0,71,0.00,,---,0.00,VWS V14.01,2013-05-31 22:08:00,
2013-05-31 16:13:00,48.8,40.5,30.16,WSW,239,0.0,0.0,73,0.00,,---,0.00,VWS V14.01,2013-05-31 22:13:00,
2013-05-31 16:18:00,48.6,40.3,30.18,WSW,240,0.0,2.0,73,0.00,,---,0.00,VWS V14.01,2013-05-31 22:18:00,
2013-05-31 16:23:00,48.3,40.1,30.18,WSW,239,0.0,0.0,73,0.00,,---,0.00,VWS V14.01,2013-05-31 22:23:00,
2013-05-31 16:28:00,48.3,40.1,30.18,WSW,239,0.0,0.0,73,0.00,,---,0.00,VWS V14.01,2013-05-31 22:28:00,
2013-05-31 16:33:00,48.3,40.8,30.18,WSW,239,0.0,1.0,75,0.00,,---,0.00,VWS V14.01,2013-05-31 22:33:00,
2013-05-31 16:39:00,48.2,39.6,30.18,WSW,239,0.0,0.0,72,0.00,,---,0.00,VWS V14.01,2013-05-31 22:39:00,
2013-05-31 16:44:00,48.3,39.7,30.18,WSW,239,0.0,0.0,72,0.00,,---,0.00,VWS V14.01,2013-05-31 22:44:00,
2013-05-31 16:49:00,48.3,39.7,30.18,WSW,239,0.0,0.0,72,0.00,,---,0.00,VWS V14.01,2013-05-31 22:49:00,
2013-05-31 16:54:00,48.5,39.9,30.18,WSW,239,0.0,0.0,72,0.00,,---,0.00,VWS V14.01,2013-05-31 22:54:00,
2013-05-31 16:59:00,48.5,39.9,30.18,WSW,239,0.0,0.0,72,0.00,,---,0.00,VWS V14.01,2013-05-31 22:59:00,
2013-05-31 17:04:00,48.5,39.2,30.18,WSW,239,0.0,0.0,70,0.00,,---,0.00,VWS V14.01,2013-05-31 23:04:00,
2013-05-31 17:09:00,48.5,39.9,30.18,WSW,239,0.0,0.0,72,0.00,,---,0.00,VWS V14.01,2013-05-31 23:09:00,
2013-05-31 17:14:00,48.5,40.6,30.18,WSW,239,0.0,0.0,74,0.00,,---,0.00,VWS V14.01,2013-05-31 23:14:00,
2013-05-31 17:19:00,48.5,40.6,30.19,WSW,239,0.0,0.0,74,0.00,,---,0.00,VWS V14.01,2013-05-31 23:19:00,
2013-05-31 17:24:00,48.3,40.8,30.19,WSW,239,0.0,0.0,75,0.00,,---,0.00,VWS V14.01,2013-05-31 23:24:00,
2013-05-31 17:29:00,48.3,41.4,30.19,WSW,239,0.0,0.0,77,0.00,,---,0.00,VWS V14.01,2013-05-31 23:29:00,
2013-05-31 17:34:00,48.3,41.1,30.19,WSW,239,0.0,0.0,76,0.00,,---,0.00,VWS V14.01,2013-05-31 23:34:00,
2013-05-31 17:39:00,48.3,41.4,30.19,WSW,239,0.0,0.0,77,0.00,,---,0.00,VWS V14.01,2013-05-31 23:39:00,
2013-05-31 17:45:00,48.2,41.7,30.19,WSW,239,0.0,0.0,78,0.00,,---,0.00,VWS V14.01,2013-05-31 23:45:00,
2013-05-31 17:50:00,48.2,41.7,30.20,WSW,239,0.0,0.0,78,0.00,,---,0.00,VWS V14.01,2013-05-31 23:50:00,
2013-05-31 17:55:00,48.3,41.1,30.20,WSW,239,0.0,0.0,76,0.00,,---,0.00,VWS V14.01,2013-05-31 23:55:00,
2013-05-31 18:00:00,48.3,41.8,30.20,WSW,239,0.0,0.0,78,0.00,,---,0.00,VWS V14.01,2013-06-01 00:00:00,
2013-05-31 18:05:00,48.2,42.0,30.20,WSW,239,0.0,0.0,79,0.00,,---,0.00,VWS V14.01,2013-06-01 00:05:00,
2013-05-31 18:10:00,48.2,42.0,30.20,WSW,239,0.0,0.0,79,0.00,,---,0.00,VWS V14.01,2013-06-01 00:10:00,
2013-05-31 18:15:00,48.2,41.7,30.20,WSW,239,0.0,0.0,78,0.00,,---,0.00,VWS V14.01,2013-06-01 00:15:00,
2013-05-31 18:20:00,48.0,41.5,30.20,WSW,239,0.0,0.0,78,0.00,,---,0.00,VWS V14.01,2013-06-01 00:20:00,
2013-05-31 18:25:00,48.0,41.8,30.20,WSW,239,0.0,0.0,79,0.00,,---,0.00,VWS V14.01,2013-06-01 00:25:00,
2013-05-31 18:30:00,48.0,41.8,30.21,WSW,239,0.0,0.0,79,0.00,,---,0.00,VWS V14.01,2013-06-01 00:30:00,
2013-05-31 18:35:00,48.0,41.8,30.21,WSW,239,0.0,0.0,79,0.00,,---,0.00,VWS V14.01,2013-06-01 00:35:00,
2013-05-31 18:40:00,48.0,42.1,30.21,WSW,239,0.0,0.0,80,0.00,,---,0.00,VWS V14.01,2013-06-01 00:40:00,
2013-05-31 18:45:00,48.2,42.3,30.22,WSW,239,0.0,0.0,80,0.00,,---,0.00,VWS V14.01,2013-06-01 00:45:00,
2013-05-31 18:50:00,48.2,42.3,30.22,WSW,239,0.0,0.0,80,0.00,,---,0.00,VWS V14.01,2013-06-01 00:50:00,
2013-05-31 18:55:00,48.3,42.8,30.22,WSW,239,0.0,0.0,81,0.00,,---,0.00,VWS V14.01,2013-06-01 00:55:00,
2013-05-31 19:01:00,48.3,42.4,30.22,WSW,239,0.0,0.0,80,0.00,,---,0.00,VWS V14.01,2013-06-01 01:01:00,
2013-05-31 19:06:00,48.5,42.6,30.22,WSW,239,0.0,0.0,80,0.00,,---,0.00,VWS V14.01,2013-06-01 01:06:00,
2013-05-31 19:11:00,48.5,42.3,30.22,WSW,239,0.0,0.0,79,0.00,,---,0.00,VWS V14.01,2013-06-01 01:11:00,
2013-05-31 19:16:00,48.5,41.6,30.21,WSW,239,0.0,0.0,77,0.00,,---,0.00,VWS V14.01,2013-06-01 01:16:00,
2013-05-31 19:21:00,48.5,41.3,30.21,WSW,239,0.0,0.0,76,0.00,,---,0.00,VWS V14.01,2013-06-01 01:21:00,
2013-05-31 19:26:00,48.3,41.1,30.21,WSW,239,0.0,0.0,76,0.00,,---,0.00,VWS V14.01,2013-06-01 01:26:00,
2013-05-31 19:31:00,48.3,41.1,30.22,WSW,239,0.0,0.0,76,0.00,,---,0.00,VWS V14.01,2013-06-01 01:31:00,
2013-05-31 19:36:00,48.2,41.0,30.22,WSW,239,0.0,0.0,76,0.00,,---,0.00,VWS V14.01,2013-06-01 01:36:00,
2013-05-31 19:41:00,48.0,41.5,30.22,WSW,239,0.0,0.0,78,0.00,,---,0.00,VWS V14.01,2013-06-01 01:41:00,
2013-05-31 19:46:00,47.9,41.0,30.23,WSW,239,0.0,0.0,77,0.00,,---,0.00,VWS V14.01,2013-06-01 01:46:00,
2013-05-31 19:51:00,47.9,41.4,30.23,WSW,239,0.0,0.0,78,0.00,,---,0.00,VWS V14.01,2013-06-01 01:51:00,
2013-05-31 19:56:00,47.7,40.8,30.23,WSW,239,0.0,0.0,77,0.00,,---,0.00,VWS V14.01,2013-06-01 01:56:00,
2013-05-31 20:01:00,47.6,41.1,30.23,WSW,239,0.0,0.0,78,0.00,,---,0.00,VWS V14.01,2013-06-01 02:01:00,
2013-05-31 20:06:00,47.6,41.4,30.23,WSW,239,0.0,0.0,79,0.00,,---,0.00,VWS V14.01,2013-06-01 02:06:00,
2013-05-31 20:12:00,47.4,41.9,30.23,WSW,239,0.0,0.0,81,0.00,,---,0.00,VWS V14.01,2013-06-01 02:12:00,
2013-05-31 20:17:00,47.4,40.6,30.24,WSW,239,0.0,0.0,77,0.00,,---,0.00,VWS V14.01,2013-06-01 02:17:00,
2013-05-31 20:22:00,47.4,39.9,30.24,WSW,241,0.0,0.0,75,0.00,,---,0.00,VWS V14.01,2013-06-01 02:22:00,
2013-05-31 20:27:00,47.6,40.1,30.24,WSW,241,0.0,0.0,75,0.00,,---,0.00,VWS V14.01,2013-06-01 02:27:00,
2013-05-31 20:32:00,47.6,40.4,30.25,WSW,241,0.0,0.0,76,0.00,,---,0.00,VWS V14.01,2013-06-01 02:32:00,
2013-05-31 20:37:00,47.6,40.4,30.25,WSW,241,0.0,0.0,76,0.00,,---,0.00,VWS V14.01,2013-06-01 02:37:00,
2013-05-31 20:42:00,47.6,40.4,30.25,WSW,241,0.0,0.0,76,0.00,,---,0.00,VWS V14.01,2013-06-01 02:42:00,
2013-05-31 20:47:00,47.6,41.1,30.25,WSW,241,0.0,0.0,78,0.00,,---,0.00,VWS V14.01,2013-06-01 02:47:00,
2013-05-31 20:52:00,47.6,40.8,30.25,WSW,241,0.0,0.0,77,0.00,,---,0.00,VWS V14.01,2013-06-01 02:52:00,
2013-05-31 20:57:00,47.4,41.2,30.25,WSW,241,0.0,0.0,79,0.00,,---,0.00,VWS V14.01,2013-06-01 02:57:00,
2013-05-31 21:02:00,47.3,40.8,30.25,WSW,241,0.0,0.0,78,0.00,,---,0.00,VWS V14.01,2013-06-01 03:02:00,
2013-05-31 21:07:00,47.3,41.1,30.25,WSW,241,0.0,0.0,79,0.00,,---,0.00,VWS V14.01,2013-06-01 03:07:00,
2013-05-31 21:12:00,47.0,40.8,30.25,WSW,241,0.0,0.0,79,0.00,,---,0.00,VWS V14.01,2013-06-01 03:12:00,
2013-05-31 21:17:00,46.8,40.6,30.25,WSW,241,0.0,0.0,79,0.00,,---,0.00,VWS V14.01,2013-06-01 03:17:00,
2013-05-31 21:23:00,46.5,40.3,30.25,WSW,241,0.0,0.0,79,0.00,,---,0.00,VWS V14.01,2013-06-01 03:23:00,
2013-05-31 21:28:00,46.4,40.6,30.25,WSW,241,0.0,0.0,80,0.00,,---,0.00,VWS V14.01,2013-06-01 03:28:00,
2013-05-31 21:33:00,46.4,40.9,30.26,WSW,241,0.0,0.0,81,0.00,,---,0.00,VWS V14.01,2013-06-01 03:33:00,
2013-05-31 21:38:00,46.2,40.7,30.26,WSW,241,0.0,0.0,81,0.00,,---,0.00,VWS V14.01,2013-06-01 03:38:00,
2013-05-31 21:43:00,46.1,40.6,30.26,WSW,241,0.0,0.0,81,0.00,,---,0.00,VWS V14.01,2013-06-01 03:43:00,
2013-05-31 21:48:00,46.1,40.6,30.27,WSW,241,0.0,0.0,81,0.00,,---,0.00,VWS V14.01,2013-06-01 03:48:00,
2013-05-31 21:53:00,46.0,40.5,30.27,WSW,241,0.0,0.0,81,0.00,,---,0.00,VWS V14.01,2013-06-01 03:53:00,
2013-05-31 21:58:00,45.8,40.0,30.27,WSW,241,0.0,0.0,80,0.00,,---,0.00,VWS V14.01,2013-06-01 03:58:00,
2013-05-31 22:01:00,45.8,40.0,30.27,WSW,241,0.0,0.0,80,0.00,,---,0.00,VWS V14.01,2013-06-01 04:01:00,
2013-05-31 22:02:00,45.7,40.2,30.27,WSW,241,0.0,0.0,81,0.00,,---,0.00,VWS V14.01,2013-06-01 04:02:00,
2013-05-31 22:04:00,45.7,40.2,30.27,WSW,241,0.0,0.0,81,0.00,,---,0.00,VWS V14.01,2013-06-01 04:04:00,
2013-05-31 22:09:00,45.5,40.0,30.27,WSW,241,0.0,0.0,81,0.00,,---,0.00,VWS V14.01,2013-06-01 04:09:00,
2013-05-31 22:14:00,45.2,39.7,30.27,WSW,241,0.0,0.0,81,0.00,,---,0.00,VWS V14.01,2013-06-01 04:14:00,
2013-05-31 22:19:00,44.9,39.4,30.27,WSW,241,0.0,0.0,81,0.00,,---,0.00,VWS V14.01,2013-06-01 04:19:00,
2013-05-31 22:24:00,44.6,39.1,30.27,WSW,241,0.0,0.0,81,0.00,,---,0.00,VWS V14.01,2013-06-01 04:24:00,
2013-05-31 22:29:00,44.2,38.8,30.27,WSW,241,0.0,0.0,81,0.00,,---,0.00,VWS V14.01,2013-06-01 04:29:00,
2013-05-31 22:34:00,43.9,38.8,30.28,WSW,241,0.0,0.0,82,0.00,,---,0.00,VWS V14.01,2013-06-01 04:34:00,
2013-05-31 22:39:00,43.5,38.4,30.28,WSW,241,0.0,0.0,82,0.00,,---,0.00,VWS V14.01,2013-06-01 04:39:00,
2013-05-31 22:44:00,42.9,37.8,30.28,WSW,241,0.0,0.0,82,0.00,,---,0.00,VWS V14.01,2013-06-01 04:44:00,
2013-05-31 22:49:00,42.5,37.7,30.29,WSW,241,0.0,0.0,83,0.00,,---,0.00,VWS V14.01,2013-06-01 04:49:00,
2013-05-31 22:54:00,42.1,37.3,30.29,WSW,241,0.0,0.0,83,0.00,,---,0.00,VWS V14.01,2013-06-01 04:54:00,
2013-05-31 22:59:00,41.8,37.3,30.29,WSW,241,0.0,0.0,84,0.00,,---,0.00,VWS V14.01,2013-06-01 04:59:00,
2013-05-31 23:05:00,41.6,37.1,30.29,SW,233,0.0,0.0,84,0.00,,---,0.00,VWS V14.01,2013-06-01 05:05:00,
2013-05-31 23:10:00,41.2,36.7,30.29,SW,233,0.0,0.0,84,0.00,,---,0.00,VWS V14.01,2013-06-01 05:10:00,
2013-05-31 23:15:00,40.6,36.2,30.29,SW,233,0.0,0.0,84,0.00,,---,0.00,VWS V14.01,2013-06-01 05:15:00,
2013-05-31 23:20:00,40.3,35.9,30.28,SW,233,0.0,0.0,84,0.00,,---,0.00,VWS V14.01,2013-06-01 05:20:00,
2013-05-31 23:25:00,40.1,36.3,30.28,SW,233,0.0,0.0,86,0.00,,---,0.00,VWS V14.01,2013-06-01 05:25:00,
2013-05-31 23:30:00,39.8,36.0,30.28,SW,233,0.0,0.0,86,0.00,,---,0.00,VWS V14.01,2013-06-01 05:30:00,
2013-05-31 23:35:00,39.6,36.1,30.30,SW,233,0.0,0.0,87,0.00,,---,0.00,VWS V14.01,2013-06-01 05:35:00,
2013-05-31 23:40:00,39.5,35.7,30.30,SW,233,0.0,0.0,86,0.00,,---,0.00,VWS V14.01,2013-06-01 05:40:00,
2013-05-31 23:45:00,39.3,35.8,30.30,SW,233,0.0,0.0,87,0.00,,---,0.00,VWS V14.01,2013-06-01 05:45:00,
2013-05-31 23:50:00,39.3,36.0,30.30,SW,233,0.0,0.0,88,0.00,,---,0.00,VWS V14.01,2013-06-01 05:50:00,
2013-05-31 23:55:00,39.5,36.2,30.30,SW,233,0.0,0.0,88,0.00,,---,0.00,VWS V14.01,2013-06-01 05:55:00,